Time;durP1;ratioP1;P1;durP2;ratioP2;P2;SDS_P1;SDS_P2;PMS_P1;PMS_P2;Temp;Humidity;BMP_temperature;BMP_pressure;BME280_temperature;BME280_humidity;BME280_pressure;Samples;Min_cycle;Max_cycle;Signal;HPM_P1;HPM_P2
2022/03/18 00:02:04;;;;;;;18.38;4.72;;;;;;;-0.49;36.60;102082.09;5029279;28;20425;-41
2022/03/18 00:04:30;;;;;;;16.70;4.45;;;;;;;-0.51;36.20;102083.69;5028579;28;20092;-41
2022/03/18 00:06:56;;;;;;;19.65;4.40;;;;;;;-0.52;36.44;102078.47;5030644;28;20091;-42
2022/03/18 00:09:22;;;;;;;16.02;5.03;;;;;;;-0.53;36.23;102074.19;5029295;28;20049;-41
2022/03/18 00:11:48;;;;;;;10.10;4.43;;;;;;;-0.53;35.92;102074.19;5029853;28;20041;-42
2022/03/18 00:14:14;;;;;;;8.82;4.22;;;;;;;-0.53;36.22;102067.41;5029591;28;20030;-41
2022/03/18 00:16:40;;;;;;;10.68;4.85;;;;;;;-0.54;36.69;102064.78;5029453;28;20045;-41
2022/03/18 00:19:06;;;;;;;14.68;4.43;;;;;;;-0.56;36.44;102071.47;5030501;28;20042;-41
2022/03/18 00:21:34;;;;;;;16.98;4.43;;;;;;;-0.63;36.33;102057.53;5028687;28;20049;-41
2022/03/18 00:24:00;;;;;;;11.18;5.10;;;;;;;-0.67;36.77;102054.75;5028677;28;20048;-41
2022/03/18 00:26:26;;;;;;;13.30;4.85;;;;;;;-0.57;36.65;102069.72;5028158;28;20450;-41
2022/03/18 00:28:52;;;;;;;12.77;4.68;;;;;;;-0.60;36.31;102069.59;5028098;28;20060;-41
2022/03/18 00:31:18;;;;;;;11.60;4.97;;;;;;;-0.63;36.37;102064.34;5022475;28;20087;-41
2022/03/18 00:33:44;;;;;;;14.20;5.10;;;;;;;-0.66;36.24;102062.50;5030424;28;20041;-41
2022/03/18 00:36:10;;;;;;;17.42;5.43;;;;;;;-0.64;36.61;102073.69;5029565;28;20069;-42
2022/03/18 00:38:36;;;;;;;13.60;4.80;;;;;;;-0.75;36.75;102054.38;5030057;28;20465;-41
2022/03/18 00:41:02;;;;;;;11.20;4.68;;;;;;;-0.68;36.71;102070.91;5029264;28;20045;-43
2022/03/18 00:43:27;;;;;;;16.60;5.18;;;;;;;-0.81;36.59;102050.66;5028561;28;20041;-46
2022/03/18 00:45:53;;;;;;;17.55;5.70;;;;;;;-0.77;36.56;102067.88;5029247;28;20095;-42
2022/03/18 00:53:47;;;;;;;14.43;4.97;;;;;;;-0.82;36.85;102075.31;5028971;28;20038;-42
2022/03/18 00:56:13;;;;;;;12.88;4.97;;;;;;;-0.84;36.68;102073.50;5029956;28;20045;-41
2022/03/18 00:58:39;;;;;;;14.30;5.40;;;;;;;-0.86;36.87;102069.19;5012274;28;20053;-42
2022/03/18 01:01:05;;;;;;;14.75;4.95;;;;;;;-0.86;37.08;102065.75;5028449;28;20505;-41
2022/03/18 01:03:31;;;;;;;10.70;5.20;;;;;;;-0.87;37.28;102061.44;5014158;28;20493;-42
2022/03/18 01:05:56;;;;;;;11.23;4.63;;;;;;;-0.88;37.22;102059.69;5007693;28;20077;-42
2022/03/18 01:08:22;;;;;;;18.38;5.10;;;;;;;-0.93;37.35;102056.03;5016619;28;20052;-43
2022/03/18 01:10:48;;;;;;;15.57;5.47;;;;;;;-0.97;37.31;102062.66;5026106;28;20119;-41
2022/03/18 01:13:14;;;;;;;11.20;4.78;;;;;;;-0.95;37.71;102068.72;5027693;28;20496;-42
2022/03/18 01:15:40;;;;;;;12.23;4.90;;;;;;;-0.93;37.58;102074.78;5020283;28;20041;-41
2022/03/18 01:18:06;;;;;;;14.80;5.20;;;;;;;-0.91;37.95;102069.75;5010488;28;20095;-42
2022/03/18 01:20:31;;;;;;;20.83;5.38;;;;;;;-0.92;38.46;102078.19;5028646;28;20045;-42
2022/03/18 01:22:57;;;;;;;16.00;5.93;;;;;;;-0.95;37.76;102083.16;5029428;28;20045;-42
2022/03/18 01:25:23;;;;;;;20.98;6.22;;;;;;;-1.00;37.92;102085.50;5029520;28;20041;-42
2022/03/18 01:27:49;;;;;;;14.38;6.50;;;;;;;-1.12;38.07;102069.53;5029735;28;20044;-41
2022/03/18 01:30:15;;;;;;;26.25;6.00;;;;;;;-1.04;38.35;102088.66;5027229;28;20053;-41
2022/03/18 01:32:41;;;;;;;14.38;5.70;;;;;;;-1.06;38.50;102090.28;5028389;28;20071;-41
2022/03/18 01:35:08;;;;;;;15.32;6.28;;;;;;;-1.08;38.61;102089.31;5028926;28;20116;-41
2022/03/18 01:37:33;;;;;;;15.32;6.13;;;;;;;-1.07;38.81;102091.06;5015265;28;20037;-41
2022/03/18 01:39:59;;;;;;;16.20;6.43;;;;;;;-1.07;38.92;102088.53;5032406;28;20040;-40
2022/03/18 01:42:25;;;;;;;20.23;5.88;;;;;;;-1.06;39.04;102090.28;5020228;28;20069;-41
2022/03/18 01:44:51;;;;;;;15.07;5.95;;;;;;;-1.07;39.64;102085.97;5027757;28;20042;-40
2022/03/18 01:47:18;;;;;;;12.82;5.35;;;;;;;-1.11;39.59;102085.75;4996217;28;20192;-41
2022/03/18 01:49:44;;;;;;;15.88;5.28;;;;;;;-1.21;39.43;102079.28;5027557;28;20049;-41
2022/03/18 01:52:10;;;;;;;17.55;5.50;;;;;;;-1.15;39.60;102087.25;5033115;28;20044;-42
2022/03/18 01:54:49;;;;;;;20.23;6.85;;;;;;;-1.17;39.70;102088.84;5031081;28;20041;-42
2022/03/18 01:57:21;;;;;;;16.75;5.75;;;;;;;-1.21;40.00;102086.06;5031738;28;20034;-42
2022/03/18 01:59:48;;;;;;;17.10;6.07;;;;;;;-1.24;40.09;102086.78;5020805;28;20179;-40
2022/03/18 02:02:15;;;;;;;16.73;5.85;;;;;;;-1.24;40.01;102091.88;5031071;28;20045;-41
2022/03/18 02:04:41;;;;;;;15.88;5.85;;;;;;;-1.27;40.18;102094.28;5031540;28;20052;-40
2022/03/18 02:07:08;;;;;;;18.60;5.57;;;;;;;-1.32;39.86;102093.16;5032651;28;20052;-42
2022/03/18 02:09:35;;;;;;;12.95;5.40;;;;;;;-1.34;40.23;102092.19;5031809;28;20066;-42
2022/03/18 02:12:02;;;;;;;15.88;5.28;;;;;;;-1.36;40.45;102098.91;5032884;28;20041;-41
2022/03/18 02:14:46;;;;;;;12.68;5.50;;;;;;;-1.36;40.64;102098.91;5030330;28;20033;-42
2022/03/18 02:17:14;;;;;;;12.20;4.85;;;;;;;-1.38;40.37;102103.94;5031932;28;20060;-41
2022/03/18 02:19:41;;;;;;;12.77;5.03;;;;;;;-1.42;40.66;102099.47;5031202;28;20095;-41
2022/03/18 02:22:19;;;;;;;16.42;5.07;;;;;;;-1.44;41.02;102102.72;5032243;28;20532;-41
2022/03/18 02:24:46;;;;;;;15.38;5.78;;;;;;;-1.44;41.33;102098.50;5014464;28;20501;-41
2022/03/18 02:27:13;;;;;;;15.82;5.18;;;;;;;-1.42;41.55;102103.69;5028301;28;20545;-42
2022/03/18 02:29:39;;;;;;;15.05;4.70;;;;;;;-1.44;41.25;102102.72;5015850;28;20420;-42
2022/03/18 02:32:07;;;;;;;10.80;3.88;;;;;;;-1.47;41.13;102102.59;5032299;28;20127;-42
2022/03/18 02:34:34;;;;;;;14.27;5.15;;;;;;;-1.53;41.31;102105.69;5030804;28;20044;-40
2022/03/18 02:37:00;;;;;;;14.38;6.40;;;;;;;-1.53;41.40;102107.34;5027186;28;20037;-41
2022/03/18 02:39:26;;;;;;;18.88;5.95;;;;;;;-1.52;41.52;102106.56;5012573;28;20068;-42
2022/03/18 02:41:52;;;;;;;12.93;5.57;;;;;;;-1.57;41.67;102105.44;5032038;28;20049;-40
2022/03/18 02:44:18;;;;;;;15.90;5.18;;;;;;;-1.57;41.58;102105.44;5031761;28;20490;-42
2022/03/18 02:46:44;;;;;;;12.30;5.13;;;;;;;-1.63;41.55;102102.56;5029776;28;20131;-40
2022/03/18 02:49:10;;;;;;;15.60;5.88;;;;;;;-1.65;42.01;102092.25;5024302;28;20136;-41
2022/03/18 02:51:37;;;;;;;17.13;5.72;;;;;;;-1.58;41.70;102107.13;5027411;28;20129;-42
2022/03/18 02:54:07;;;;;;;17.90;5.90;;;;;;;-1.59;41.90;102107.91;5011953;28;20525;-41
2022/03/18 02:56:34;;;;;;;22.30;6.10;;;;;;;-1.63;42.02;102097.47;5027655;28;20460;-41
2022/03/18 02:59:00;;;;;;;14.45;5.53;;;;;;;-1.68;42.04;102089.56;5030527;28;20147;-42
2022/03/18 03:01:27;;;;;;;11.00;5.22;;;;;;;-1.69;42.15;102092.91;5030514;28;20053;-40
2022/03/18 03:03:54;;;;;;;9.82;5.15;;;;;;;-1.68;42.12;102094.66;5030141;28;20053;-42
2022/03/18 03:09:12;;;;;;;24.90;6.30;;;;;;;-1.66;41.90;102110.91;5010096;28;20587;-42
2022/03/18 03:11:38;;;;;;;15.27;5.57;;;;;;;-1.80;42.10;102091.44;5026083;28;20057;-41
2022/03/18 03:14:03;;;;;;;13.30;5.45;;;;;;;-1.69;42.42;102112.44;5031586;28;20124;-41
2022/03/18 03:16:30;;;;;;;16.40;5.57;;;;;;;-1.73;42.63;102116.50;5028569;28;20373;-42
2022/03/18 03:18:56;;;;;;;16.45;5.88;;;;;;;-1.73;42.32;102116.50;5031461;28;20034;-43
2022/03/18 03:21:22;;;;;;;17.30;6.25;;;;;;;-1.75;42.39;102112.97;5030935;28;20074;-41
2022/03/18 03:23:47;;;;;;;19.02;5.78;;;;;;;-1.76;42.20;102129.06;5030775;28;20126;-41
2022/03/18 03:26:14;;;;;;;14.63;5.70;;;;;;;-1.81;42.45;102117.72;5012758;28;20045;-41
2022/03/18 03:28:41;;;;;;;15.77;5.82;;;;;;;-1.82;43.04;102123.63;5031095;28;20041;-41
2022/03/18 03:31:08;;;;;;;14.52;5.68;;;;;;;-1.82;42.71;102127.06;5030706;28;20495;-41
2022/03/18 03:33:33;;;;;;;16.77;5.88;;;;;;;-1.84;42.84;102130.31;5009608;28;20045;-43
2022/03/18 03:35:59;;;;;;;17.35;5.93;;;;;;;-1.84;42.63;102127.78;5016793;28;20044;-41
2022/03/18 03:38:25;;;;;;;16.88;5.85;;;;;;;-1.85;42.67;102123.47;5013412;28;20598;-42
2022/03/18 03:40:51;;;;;;;21.10;6.00;;;;;;;-1.97;42.87;102107.50;5028561;28;20053;-42
2022/03/18 03:43:17;;;;;;;19.88;5.88;;;;;;;-1.83;42.77;102129.50;5029134;28;20045;-42
2022/03/18 03:45:43;;;;;;;13.80;5.32;;;;;;;-1.82;42.79;102123.63;5028327;28;20099;-42
2022/03/18 03:48:10;;;;;;;17.48;5.72;;;;;;;-1.82;42.71;102124.50;5030082;28;20083;-41
2022/03/18 03:50:37;;;;;;;16.15;6.28;;;;;;;-1.82;42.42;102121.06;5012214;28;20117;-42
2022/03/18 03:53:03;;;;;;;17.95;5.50;;;;;;;-1.82;42.72;102118.53;5029229;28;20128;-41
2022/03/18 03:55:29;;;;;;;12.55;5.43;;;;;;;-1.80;42.24;102122.03;5030566;28;20037;-41
2022/03/18 03:57:55;;;;;;;24.25;5.95;;;;;;;-1.90;42.36;102099.41;5020806;28;20464;-41
2022/03/18 04:00:21;;;;;;;20.17;5.80;;;;;;;-1.78;41.88;102115.38;5029869;28;20141;-43
2022/03/18 04:02:47;;;;;;;17.30;5.15;;;;;;;-1.76;41.69;102121.41;5014137;28;20050;-42
2022/03/18 04:05:13;;;;;;;18.30;5.35;;;;;;;-1.75;41.45;102116.41;5026093;28;20057;-42
2022/03/18 04:07:44;;;;;;;24.33;6.85;;;;;;;-1.71;41.89;102115.75;5030337;28;20135;-42
2022/03/18 04:10:11;;;;;;;17.40;5.65;;;;;;;-1.73;41.37;102102.03;5029321;28;20136;-41
2022/03/18 04:12:37;;;;;;;18.95;5.00;;;;;;;-1.71;41.48;102089.38;5029873;28;20037;-41
2022/03/18 04:15:04;;;;;;;19.83;5.93;;;;;;;-1.58;41.42;102106.22;5030069;28;20095;-42
2022/03/18 04:17:40;;;;;;;29.20;6.07;;;;;;;-1.56;41.12;102108.06;5029866;28;20410;-42
2022/03/18 04:20:09;;;;;;;25.17;7.78;;;;;;;-1.50;41.01;102110.06;5028791;28;20038;-41
2022/03/18 04:22:35;;;;;;;23.98;5.55;;;;;;;-1.48;40.90;102101.69;5030084;28;20049;-41
2022/03/18 04:25:01;;;;;;;10.55;4.70;;;;;;;-1.44;41.00;102103.59;5028494;28;20398;-41
2022/03/18 04:27:26;;;;;;;17.13;5.60;;;;;;;-1.35;40.92;102114.28;5029574;28;20072;-41
2022/03/18 04:29:53;;;;;;;16.33;4.88;;;;;;;-1.31;40.47;102100.88;5029891;28;20432;-42
2022/03/18 04:32:19;;;;;;;13.57;5.25;;;;;;;-1.27;40.49;102104.50;5011905;28;20107;-42
2022/03/18 04:34:45;;;;;;;13.90;4.95;;;;;;;-1.21;40.39;102109.03;5030158;28;20496;-42
2022/03/18 04:37:11;;;;;;;19.40;6.05;;;;;;;-1.16;40.17;102116.16;5028381;28;20124;-42
2022/03/18 04:39:36;;;;;;;18.50;5.10;;;;;;;-1.12;40.05;102107.84;5028373;28;20133;-42
2022/03/18 04:42:03;;;;;;;17.15;5.05;;;;;;;-1.07;40.06;102114.06;5011945;28;20075;-42
2022/03/18 04:44:28;;;;;;;16.02;5.50;;;;;;;-1.01;39.92;102116.03;5029533;28;20041;-42
2022/03/18 04:46:54;;;;;;;25.60;5.97;;;;;;;-0.96;39.78;102117.16;5029257;28;20088;-43
2022/03/18 04:49:20;;;;;;;12.77;4.45;;;;;;;-0.90;39.74;102118.34;5029658;28;20380;-42
2022/03/18 04:51:46;;;;;;;18.35;5.07;;;;;;;-0.84;39.46;102114.34;5028097;28;20045;-43
2022/03/18 04:54:11;;;;;;;22.30;5.03;;;;;;;-0.86;39.31;102098.94;5028495;28;20509;-41
2022/03/18 04:59:22;;;;;;;18.13;4.75;;;;;;;-0.60;38.72;102129.22;5029212;28;20049;-42
2022/03/18 05:01:48;;;;;;;33.47;5.93;;;;;;;-0.52;38.60;102125.34;5028970;28;20145;-42
2022/03/18 05:04:14;;;;;;;29.13;5.47;;;;;;;-0.41;38.47;102120.78;5028135;28;20124;-42
2022/03/18 05:06:40;;;;;;;33.72;6.13;;;;;;;-0.36;38.01;102126.97;5034747;28;20044;-42
2022/03/18 05:09:06;;;;;;;20.48;5.32;;;;;;;-0.26;38.05;102131.72;5029168;28;20099;-40
2022/03/18 05:11:32;;;;;;;40.53;5.72;;;;;;;-0.30;37.50;102106.84;5029139;28;20052;-43
2022/03/18 05:13:58;;;;;;;23.60;5.40;;;;;;;-0.14;37.38;102122.13;5032875;28;20041;-42
2022/03/18 05:16:25;;;;;;;17.02;5.18;;;;;;;-0.07;37.13;102113.94;5033641;28;20099;-43
2022/03/18 05:18:52;;;;;;;17.20;5.47;;;;;;;0.09;36.74;102128.31;5032215;28;20041;-42
2022/03/18 05:21:17;;;;;;;19.63;5.65;;;;;;;0.19;36.68;102129.63;5032579;28;20551;-43
2022/03/18 05:23:43;;;;;;;18.35;4.80;;;;;;;0.29;36.40;102124.13;5032510;28;20071;-42
2022/03/18 05:26:09;;;;;;;25.80;5.47;;;;;;;0.39;36.36;102122.06;5031632;28;20037;-42
2022/03/18 05:28:37;;;;;;;24.25;5.95;;;;;;;0.47;35.88;102121.56;5032666;28;20037;-42
2022/03/18 05:31:02;;;;;;;17.67;5.00;;;;;;;0.63;35.79;102124.84;5032663;28;20048;-41
2022/03/18 05:33:28;;;;;;;24.15;5.22;;;;;;;0.72;35.72;102130.41;5032596;28;20119;-41
2022/03/18 05:35:54;;;;;;;22.33;5.70;;;;;;;0.81;35.15;102123.13;5033272;28;20132;-42
2022/03/18 05:38:20;;;;;;;15.45;4.72;;;;;;;0.94;35.08;102126.22;5032974;28;20037;-42
2022/03/18 05:40:45;;;;;;;12.27;4.53;;;;;;;1.09;35.12;102127.75;5032767;28;20120;-41
2022/03/18 05:43:11;;;;;;;20.25;5.25;;;;;;;1.21;34.74;102130.81;5030329;28;20071;-41
2022/03/18 05:45:37;;;;;;;14.15;4.45;;;;;;;1.28;34.10;102116.59;5033117;28;20045;-42
2022/03/18 05:48:06;;;;;;;14.23;4.22;;;;;;;1.46;34.09;102124.19;5033128;28;20052;-41
2022/03/18 05:50:32;;;;;;;12.95;3.90;;;;;;;1.63;33.96;102129.19;5033087;28;20419;-43
2022/03/18 05:52:59;;;;;;;14.07;4.68;;;;;;;1.99;33.51;102134.06;5031555;28;20040;-43
2022/03/18 05:55:26;;;;;;;15.52;4.85;;;;;;;2.44;32.74;102133.25;5031509;28;20045;-42
2022/03/18 05:57:55;;;;;;;14.40;5.18;;;;;;;3.14;31.99;102128.09;5032137;28;20584;-40
2022/03/18 06:00:21;;;;;;;15.73;5.05;;;;;;;4.00;30.76;102106.97;5024154;28;20060;-45
2022/03/18 06:02:46;;;;;;;18.92;6.80;;;;;;;5.21;29.33;102126.78;5040352;28;20087;-43
2022/03/18 06:05:12;;;;;;;19.52;5.88;;;;;;;6.07;28.19;102123.78;5015636;28;20049;-50
2022/03/18 06:07:39;;;;;;;13.05;4.80;;;;;;;6.83;27.58;102122.88;5029839;28;20049;-43
2022/03/18 06:12:49;;;;;;;12.05;4.53;;;;;;;8.35;25.05;102120.31;5031900;28;20137;-44
2022/03/18 06:15:16;;;;;;;24.30;5.82;;;;;;;9.00;24.32;102102.97;5031682;28;20034;-45
2022/03/18 06:17:42;;;;;;;14.90;5.20;;;;;;;9.85;23.77;102115.84;5031382;28;20068;-45
2022/03/18 06:20:08;;;;;;;14.48;5.05;;;;;;;10.41;23.39;102104.13;5031225;28;20080;-46
2022/03/18 06:22:34;;;;;;;18.60;5.90;;;;;;;11.13;22.36;102120.88;5031413;28;20124;-44
2022/03/18 06:25:00;;;;;;;15.00;5.28;;;;;;;11.64;21.38;102122.66;5038217;28;20131;-44
2022/03/18 06:27:26;;;;;;;12.30;5.20;;;;;;;12.14;21.25;102119.19;5032368;28;20160;-47
2022/03/18 06:29:52;;;;;;;14.90;5.47;;;;;;;12.72;20.69;102118.13;5032617;28;20045;-44
2022/03/18 06:32:19;;;;;;;15.73;4.93;;;;;;;13.27;20.01;102114.38;5031602;28;20428;-42
2022/03/18 06:34:45;;;;;;;15.88;5.50;;;;;;;13.64;19.50;102113.25;4994422;28;20033;-45
2022/03/18 06:37:11;;;;;;;19.25;5.35;;;;;;;14.06;18.98;102112.00;5042845;28;20037;-47
2022/03/18 06:39:37;;;;;;;12.52;4.45;;;;;;;14.52;18.40;102103.66;5025898;28;20045;-42
2022/03/18 06:42:04;;;;;;;20.20;9.40;;;;;;;15.14;18.39;102110.69;5014026;28;20052;-43
2022/03/18 06:44:30;;;;;;;15.38;5.05;;;;;;;15.66;17.94;102109.03;5031172;28;20474;-44
2022/03/18 06:46:56;;;;;;;16.45;5.03;;;;;;;16.23;17.67;102100.13;5029289;28;20118;-50
2022/03/18 06:49:22;;;;;;;18.00;5.50;;;;;;;16.75;17.26;102095.59;5020862;28;20049;-46
2022/03/18 06:51:48;;;;;;;14.80;5.28;;;;;;;17.00;16.62;102090.69;5023386;28;20057;-47
2022/03/18 06:54:14;;;;;;;16.65;5.47;;;;;;;17.29;16.50;102080.34;5022321;28;20041;-43
2022/03/18 06:56:40;;;;;;;13.75;5.10;;;;;;;17.47;16.22;102081.69;5031944;28;20505;-46
2022/03/18 06:59:06;;;;;;;15.77;5.22;;;;;;;17.73;15.86;102062.63;5031556;28;20084;-43
2022/03/18 07:01:32;;;;;;;19.83;5.20;;;;;;;17.98;15.54;102074.25;5033644;28;20045;-44
2022/03/18 07:03:58;;;;;;;11.68;4.68;;;;;;;18.25;15.31;102075.25;5013946;28;20041;-44
2022/03/18 07:06:23;;;;;;;13.10;4.50;;;;;;;18.56;14.88;102077.91;5012331;28;20049;-43
2022/03/18 07:08:49;;;;;;;12.68;5.05;;;;;;;18.87;14.48;102078.72;5013388;28;20045;-44
2022/03/18 07:11:15;;;;;;;9.68;5.15;;;;;;;19.10;14.31;102058.69;5032134;28;20075;-43
2022/03/18 07:13:43;;;;;;;10.80;5.00;;;;;;;19.52;14.22;102065.25;5031964;28;20060;-43
2022/03/18 07:18:53;;;;;;;16.75;5.10;;;;;;;19.76;13.77;102066.19;5028450;28;20045;-48
2022/03/18 07:21:19;;;;;;;10.73;5.28;;;;;;;20.07;13.49;102074.75;5004666;28;20045;-45
2022/03/18 07:23:45;;;;;;;16.13;5.78;;;;;;;20.48;13.30;102081.19;5020702;28;20121;-45
2022/03/18 07:26:11;;;;;;;15.15;5.68;;;;;;;20.90;13.17;102062.81;5020415;28;20045;-47
2022/03/18 07:28:37;;;;;;;15.07;5.30;;;;;;;21.24;12.59;102067.69;5022685;28;20037;-47
2022/03/18 07:31:02;;;;;;;18.92;5.72;;;;;;;21.73;12.54;102069.13;5018735;28;20060;-48
2022/03/18 07:33:28;;;;;;;11.95;5.38;;;;;;;21.95;12.18;102059.34;5022560;28;20038;-44
2022/03/18 07:35:54;;;;;;;22.63;5.65;;;;;;;22.26;12.12;102045.59;5024281;28;20045;-43
2022/03/18 07:38:20;;;;;;;17.95;6.40;;;;;;;22.76;12.02;102059.22;5023334;28;20128;-44
2022/03/18 07:40:46;;;;;;;12.60;5.22;;;;;;;23.10;11.72;102057.56;5019942;28;20164;-41
2022/03/18 07:43:12;;;;;;;16.70;6.97;;;;;;;23.36;11.21;102054.50;5023542;28;20132;-42
2022/03/18 07:45:38;;;;;;;18.35;5.50;;;;;;;23.32;11.33;102049.41;5019882;28;20898;-49
2022/03/18 07:48:06;;;;;;;15.00;7.97;;;;;;;23.32;11.28;102047.63;5025220;28;20037;-44
2022/03/18 07:50:33;;;;;;;9.43;4.53;;;;;;;23.47;11.16;102048.69;5024559;28;20586;-43
2022/03/18 07:53:01;;;;;;;11.00;4.97;;;;;;;23.53;10.99;102040.41;5025501;28;20041;-47
2022/03/18 07:55:29;;;;;;;17.65;4.63;;;;;;;23.44;11.18;102046.16;5022529;28;20511;-45
2022/03/18 07:57:56;;;;;;;8.83;5.03;;;;;;;23.48;11.17;102045.97;5021262;28;20042;-50
2022/03/18 08:00:21;;;;;;;9.93;5.20;;;;;;;23.23;11.28;102045.44;5016498;28;20057;-47
2022/03/18 08:02:51;;;;;;;11.52;5.05;;;;;;;23.15;10.97;102034.31;5021261;28;20180;-47
2022/03/18 08:05:17;;;;;;;15.40;5.00;;;;;;;22.78;11.38;102040.56;5023735;28;20068;-45
2022/03/18 08:07:44;;;;;;;15.15;5.40;;;;;;;22.67;11.25;102035.72;5024112;28;20104;-48
2022/03/18 08:10:10;;;;;;;11.52;5.15;;;;;;;22.38;11.45;102033.59;5022067;28;20572;-45
2022/03/18 08:12:38;;;;;;;13.13;4.55;;;;;;;22.70;11.22;102035.59;5021006;28;20505;-46
2022/03/18 08:15:07;;;;;;;14.10;5.18;;;;;;;23.08;11.21;102038.22;5021562;28;20527;-44
2022/03/18 08:17:33;;;;;;;16.60;5.55;;;;;;;23.39;11.00;102030.47;5049804;28;20540;-46
2022/03/18 08:19:59;;;;;;;11.68;4.95;;;;;;;23.82;10.82;102029.13;5019998;28;20037;-45
2022/03/18 08:22:25;;;;;;;16.00;4.68;;;;;;;23.80;10.64;102022.19;5029716;28;20080;-43
2022/03/18 08:24:52;;;;;;;9.20;4.55;;;;;;;23.85;10.48;102023.66;5030362;28;20037;-44
2022/03/18 08:27:19;;;;;;;12.35;5.15;;;;;;;24.13;10.67;102024.88;5030114;28;20049;-48
2022/03/18 08:29:45;;;;;;;11.55;5.15;;;;;;;24.20;10.43;102028.94;5029363;28;20042;-43
2022/03/18 08:32:16;;;;;;;15.27;4.88;;;;;;;24.26;10.38;102029.47;5028821;28;20432;-46
2022/03/18 08:34:43;;;;;;;15.88;4.80;;;;;;;24.31;10.49;102031.88;5029319;28;20109;-46
2022/03/18 08:37:10;;;;;;;10.68;5.22;;;;;;;24.40;10.50;102028.69;5006868;28;20125;-43
2022/03/18 08:39:36;;;;;;;10.02;5.18;;;;;;;24.49;10.44;102029.06;5029258;28;20140;-44
2022/03/18 08:42:03;;;;;;;15.65;5.03;;;;;;;24.74;10.40;102031.22;5030588;28;20045;-43
2022/03/18 08:44:28;;;;;;;10.88;4.80;;;;;;;25.03;10.33;102024.28;5030414;28;20049;-43
2022/03/18 08:46:55;;;;;;;10.48;4.53;;;;;;;25.31;10.21;102028.84;5033977;28;20056;-46
2022/03/18 08:49:20;;;;;;;28.63;5.68;;;;;;;25.68;9.94;102020.44;5034406;28;20050;-46
2022/03/18 08:51:46;;;;;;;18.33;5.82;;;;;;;25.83;10.09;102023.09;5014955;28;20084;-45
2022/03/18 08:54:12;;;;;;;12.88;4.93;;;;;;;25.65;9.61;102017.06;5032683;28;20036;-46
2022/03/18 08:56:38;;;;;;;13.05;5.25;;;;;;;25.88;9.75;102013.00;5051152;28;20099;-44
2022/03/18 08:59:06;;;;;;;13.98;4.90;;;;;;;26.07;9.56;102018.91;5035952;28;20587;-49
2022/03/18 09:01:34;;;;;;;11.00;5.03;;;;;;;26.19;9.43;102006.63;5018375;28;20052;-43
2022/03/18 09:04:03;;;;;;;11.38;5.07;;;;;;;26.45;9.44;102009.41;5005327;28;20513;-47
2022/03/18 09:06:29;;;;;;;6.35;4.57;;;;;;;26.60;9.58;102018.22;5001242;28;20049;-43
2022/03/18 09:08:57;;;;;;;11.35;4.47;;;;;;;26.56;9.53;102014.06;5027963;28;20037;-42
2022/03/18 09:11:23;;;;;;;8.30;4.63;;;;;;;26.35;9.46;102000.28;5042005;28;20463;-46
2022/03/18 09:13:49;;;;;;;14.32;4.63;;;;;;;26.09;9.46;101999.22;5036282;28;20099;-49
2022/03/18 09:16:15;;;;;;;12.50;5.07;;;;;;;25.95;9.46;101998.38;4983426;28;20051;-44
2022/03/18 09:18:41;;;;;;;7.70;4.60;;;;;;;25.86;9.27;102004.25;5031947;28;20037;-43
2022/03/18 09:21:07;;;;;;;6.93;5.10;;;;;;;25.82;9.55;102008.06;5014112;28;20045;-44
2022/03/18 09:23:33;;;;;;;11.20;4.90;;;;;;;25.99;9.40;102006.06;5012353;28;20053;-45
2022/03/18 09:25:58;;;;;;;9.07;4.88;;;;;;;26.13;9.37;102005.22;5029027;28;20117;-45
2022/03/18 09:28:24;;;;;;;8.63;4.80;;;;;;;26.51;9.58;102005.50;5023718;28;20091;-47
2022/03/18 09:30:51;;;;;;;13.00;5.32;;;;;;;26.91;9.52;101993.94;5033564;28;20037;-45
2022/03/18 09:33:17;;;;;;;11.27;5.90;;;;;;;27.12;9.22;101994.34;5033016;28;20041;-45
2022/03/18 09:35:43;;;;;;;7.20;4.82;;;;;;;27.09;8.93;102001.72;5032991;28;20168;-45
2022/03/18 09:38:09;;;;;;;15.68;4.90;;;;;;;26.99;9.20;101996.13;5032262;28;20037;-45
2022/03/18 09:40:36;;;;;;;17.05;5.88;;;;;;;27.10;9.38;101990.94;5033207;28;20049;-44
2022/03/18 09:43:07;;;;;;;17.38;5.30;;;;;;;27.29;9.37;101986.06;5031999;28;20476;-46
2022/03/18 09:45:38;;;;;;;11.75;5.20;;;;;;;27.39;9.19;101983.59;5032349;28;20124;-45
2022/03/18 09:48:06;;;;;;;5.63;4.30;;;;;;;27.50;9.07;101977.56;5031240;28;20049;-45
2022/03/18 09:50:33;;;;;;;10.82;4.63;;;;;;;27.51;9.06;101981.94;5033349;28;20128;-44
2022/03/18 09:52:59;;;;;;;11.60;5.20;;;;;;;27.65;8.89;101977.34;5031513;28;20029;-45
2022/03/18 09:55:25;;;;;;;8.32;4.70;;;;;;;27.19;8.78;101979.63;5032843;28;20048;-45
2022/03/18 09:57:52;;;;;;;12.77;4.82;;;;;;;27.16;9.03;101973.63;5030336;28;20037;-43
2022/03/18 10:00:18;;;;;;;9.30;4.90;;;;;;;27.40;9.20;101972.81;5024706;28;20065;-43
2022/03/18 10:02:44;;;;;;;8.80;4.93;;;;;;;27.74;9.17;101975.88;5029276;28;20049;-44
2022/03/18 10:05:14;;;;;;;9.32;3.95;;;;;;;28.02;8.88;101962.25;5007238;28;20037;-43
2022/03/18 10:07:53;;;;;;;13.88;5.22;;;;;;;27.93;8.95;101967.41;5004506;28;20140;-58
2022/03/18 10:10:19;;;;;;;9.23;4.30;;;;;;;28.25;8.84;101960.63;5041985;28;20038;-59
2022/03/18 10:12:47;;;;;;;7.57;3.78;;;;;;;28.53;8.62;101962.13;5012607;28;20129;-60
2022/03/18 10:15:13;;;;;;;8.00;4.75;;;;;;;28.71;8.62;101955.44;5032929;28;20046;-59
2022/03/18 10:17:39;;;;;;;8.00;4.00;;;;;;;28.62;8.33;101950.78;5021840;28;20451;-59
2022/03/18 10:20:05;;;;;;;9.30;4.18;;;;;;;28.85;8.21;101946.38;5027926;28;20029;-60
2022/03/18 10:22:31;;;;;;;9.18;4.00;;;;;;;28.87;8.09;101944.47;5012775;28;20080;-59
2022/03/18 10:24:56;;;;;;;10.63;4.30;;;;;;;28.79;8.31;101950.38;5064703;28;20132;-60
2022/03/18 10:27:23;;;;;;;9.35;3.50;;;;;;;28.90;8.16;101939.72;5032223;28;20128;-59
2022/03/18 10:29:54;;;;;;;10.68;3.50;;;;;;;29.31;7.96;101941.09;5032376;28;20124;-59
2022/03/18 10:32:24;;;;;;;7.03;3.38;;;;;;;29.19;7.94;101939.34;5030315;28;20037;-59
2022/03/18 10:37:46;;;;;;;5.50;3.70;;;;;;;29.39;7.91;101936.00;5030751;28;20080;-58
2022/03/18 10:40:12;;;;;;;6.47;3.70;;;;;;;29.23;8.18;101920.22;5030870;28;20124;-59
2022/03/18 10:42:39;;;;;;;6.60;3.60;;;;;;;29.12;7.98;101920.19;5024927;28;20124;-59
2022/03/18 10:45:06;;;;;;;5.80;3.70;;;;;;;29.34;7.95;101930.16;5011049;28;20074;-59
2022/03/18 10:47:34;;;;;;;14.10;4.13;;;;;;;29.23;7.96;101897.94;5021380;28;20086;-60
2022/03/18 10:50:13;;;;;;;5.70;3.53;;;;;;;29.54;7.62;101928.56;5028857;28;20526;-60
2022/03/18 10:52:40;;;;;;;8.02;3.60;;;;;;;29.50;7.59;101927.13;5030637;28;20212;-58
2022/03/18 10:55:31;;;;;;;11.90;8.23;;;;;;;29.25;7.84;101914.75;5030469;28;20131;-59
2022/03/18 10:58:02;;;;;;;5.75;4.40;;;;;;;29.16;7.87;101918.97;5031817;28;20029;-59
2022/03/18 11:00:30;;;;;;;6.47;3.75;;;;;;;29.07;7.92;101892.91;5014534;28;20517;-59
2022/03/18 11:02:59;;;;;;;5.07;4.03;;;;;;;29.42;7.95;101911.63;5032858;28;20425;-60
2022/03/18 11:05:36;;;;;;;6.72;3.67;;;;;;;29.47;7.83;101909.44;5029589;28;20571;-60
2022/03/18 11:08:22;;;;;;;7.03;3.88;;;;;;;29.23;7.70;101890.75;5046856;28;20068;-58
2022/03/18 11:14:03;;;;;;;5.25;3.92;;;;;;;29.75;7.98;101910.78;5030376;28;20582;-58
2022/03/18 11:16:33;;;;;;;8.20;3.78;;;;;;;29.61;7.92;101911.03;5029904;28;20514;-60
2022/03/18 11:19:01;;;;;;;7.10;4.20;;;;;;;29.79;7.95;101894.34;5030907;28;20556;-58
2022/03/18 11:21:40;;;;;;;6.30;3.25;;;;;;;30.16;7.87;101905.66;5031502;28;20124;-60
2022/03/18 11:24:15;;;;;;;5.47;4.10;;;;;;;30.19;7.65;101899.22;5029795;28;20042;-57
2022/03/18 11:26:50;;;;;;;8.52;3.75;;;;;;;30.12;7.77;101904.22;5029344;28;20079;-58
2022/03/18 11:29:24;;;;;;;7.63;3.60;;;;;;;30.18;7.54;101905.53;5030592;28;20041;-59
2022/03/18 11:32:16;;;;;;;9.60;4.15;;;;;;;30.28;7.69;101896.63;5031171;28;20531;-60
2022/03/18 11:34:52;;;;;;;11.60;3.58;;;;;;;30.06;8.18;101885.91;5028982;28;20366;-60
2022/03/18 11:37:19;;;;;;;6.95;3.17;;;;;;;30.05;8.11;101886.03;5030652;28;20524;-59
2022/03/18 11:39:46;;;;;;;10.50;3.08;;;;;;;30.06;8.10;101867.13;5029851;28;20546;-60
2022/03/18 11:42:17;;;;;;;9.85;5.25;;;;;;;29.84;8.11;101878.72;5013117;28;20049;-60
2022/03/18 11:44:45;;;;;;;10.02;3.60;;;;;;;29.54;8.22;101883.84;5015204;28;20042;-59